Aeroporto :
LOGIN :

Iscrizione | Disclaimer

   EN    FR    IT 

 










Sommario :    VFR   VFR Marginale   IFR   IFR Intensivo   IFR Molto Intensivo
Visibilità : 
Base nubi : 
>= 8 km
>= 3000ft
5 / 8 km
1000 / 3000 ft
1500m / 5 km
500 / 1000 ft
800 / 1500m
200 / 500 ft
< 800m
< 200 ft
Simboli :   Temporali  Nebbia  Neve Forte  Precipitazioni Forti  Vento > 20 kt
SIGMETs :   Varie  Temporali  Ghiacco  Turbolenza  Onda orograficha  Ceneri Vulcaniche






- Altitudine del aeroporto : 160 ft
- Codice IATA : FMO


EDDG - Münster Osnabrück Int.

ULTIMO METAR :
  • 171520Z 23010KT 200V260 9999 FEW020 FEW028CB 07/04 Q1011 RESHRA TEMPO 22015G25KT

METARs OBSOLETI :
  • 171450Z 24021G31KT 9999 -SHRA FEW020 BKN028CB 07/03 Q1011 RESHGS NOSIG
  • 171420Z 21010KT 170V240 9999 -SHRA SCT033CB 10/02 Q1010 TEMPO 22020G35KT 4000 +SHRAGS
  • 171350Z 21011KT 160V240 9999 -SHRA FEW033CB 10/02 Q1010 TEMPO 22020G35KT SHRAGS BKN030
  • 171320Z 22017KT 170V250 9999 -SHRA FEW033CB BKN042 10/01 Q1011 TEMPO 22020G35KT SHRAGS BKN030CB
  • 171250Z 22021G31KT 190V250 9999 FEW037 BKN042 11/00 Q1011 NOSIG

TAF TAF EDDG
Valido dal 17 a 12 ore il 18 a 12 ore UTC


171100Z 1712/1812 22015G25KT 9999 SCT030
TEMPO 1712/1716 23020G30KT
TEMPO 1713/1804 SHRA BKN020CB
TEMPO 1808/1812 23020G30KT



MetMap, La meteo Aeronautica in un colpo d'occhio ! - Copyright ORBIFLY Dicembre 2007 - Disclaimer

ORBIFLY MET'MAP TEAM :

Programmazione e sviluppo : Alexandra Zaïnal
Concezione : Baudouin d'Aumeries
Aiuto per la programmazione : Marc-Olivier Méhu
Supporto tecnico e logistico : Manuel Goepfert
Aiuto per la traduzione : Arnaldo La Scala

Contatto : metmap@orbifly.com




FONTI E CREDITI :

   NOAA